Airfield :
LOGIN :

Register | Disclaimer

   EN    FR    IT 

 










Legend :    VFR   Marginal VFR   IFR   Intensive IFR   Very Intensive IFR
Visi :
Ceiling :
>= 8 km
>= 3000ft
5 to 8 km
1000 to 3000 ft
1500m to 5 km
500 to 1000 ft
800 to 1500m
200 to 500 ft
< 800m
< 200 ft
Symbols :   Thunderstorms  Fog  Heavy snow  Heavy precipitations  Wind > 20 kt
SIGMETs :     Misc.  Thunderstorms  Icing  Turbulence  Mountain Waves  Volcanic Ashes






- Airport Elevation : 412 ft
- IATA code : ADB


LTBJ - Adnan Menderes

CURRENT METAR :
  • 090620Z 20006KT 170V230 9999 FEW030 07/05 Q1018 NOSIG

EXPIRED METARs :
  • 090550Z VRB02KT 9999 FEW030 05/05 Q1018 NOSIG RMK RWY16 22009KT
  • 090520Z VRB01KT 9999 FEW035 05/04 Q1018 NOSIG RMK RWY16 21007KT
  • 090450Z 18005KT 9999 FEW035 05/04 Q1018 NOSIG RMK RWY16 21009KT
  • 090420Z 18004KT 080V210 9999 FEW035 05/05 Q1018 NOSIG
  • 090350Z VRB02KT 9999 FEW035 05/04 Q1018 NOSIG RMK RWY16 19006KT

TAF TAF LTBJ
Valid from the 09 at 06:00 until the 10 at 06:00 UTC


090440Z 0906/1006 VRB02KT 9999 SCT035
BECMG 0907/0909 16013KT
PROB30
TEMPO 0914/0918 -SHRA BKN030
BECMG 1003/1006 16018G35KT -SHRA BKN030 BKN090



MET'MAP, your aeronautical weather chart ! - Copyright ORBIFLY December 2007 - Disclaimer

ORBIFLY MET'MAP TEAM :

Programming & Development : Alexandra Zaïnal
Concept & original design : Baudouin d'Aumeries
Assistance for programming : Marc-Olivier Méhu
Technical & hardware support : Manuel Goepfert

Contact : metmap@orbifly.com




SOURCES & CREDITS :

   NOAA